Aeroporto :
LOGIN :

Iscrizione | Disclaimer

   EN    FR    IT 

 










Sommario :    VFR   VFR Marginale   IFR   IFR Intensivo   IFR Molto Intensivo
Visibilità : 
Base nubi : 
>= 8 km
>= 3000ft
5 / 8 km
1000 / 3000 ft
1500m / 5 km
500 / 1000 ft
800 / 1500m
200 / 500 ft
< 800m
< 200 ft
Simboli :   Temporali  Nebbia  Neve Forte  Precipitazioni Forti  Vento > 20 kt
SIGMETs :   Varie  Temporali  Ghiacco  Turbolenza  Onda orograficha  Ceneri Vulcaniche






- Altitudine del aeroporto : 49 ft
- Codice IATA : SEN


EGMC - Southend

ULTIMO METAR :
  • 271620Z 24011KT 9999 SCT037 13/09 Q1015

METARs OBSOLETI :
  • 271550Z 25018KT 9999 -RA SCT037 13/09 Q1015
  • 271520Z 21016KT 9999 VCSH FEW037 16/08 Q1015
  • 271450Z 21012KT 150V240 9999 FEW035 18/07 Q1015
  • 271420Z 19012KT 160V230 9999 FEW035 18/08 Q1015
  • 271350Z 20013KT 9999 FEW035 17/09 Q1015
  • 271320Z 21014KT 9999 FEW034 16/07 Q1015
  • 271250Z 22016KT 9999 FEW021 15/08 Q1015
  • 271220Z 23017KT 9999 FEW021 16/06 Q1015
  • 271150Z 23012KT 9999 FEW016 SCT035 15/07 Q1015

TAF TAF EGMC
Valido dal 27 a 15 ore il 27 a 20 ore UTC


271356Z 2715/2720 22014KT 9999 SCT035
TEMPO 2715/2718 7000 SHRA
PROB30
TEMPO 2715/2718 4000 +SHRA



MetMap, La meteo Aeronautica in un colpo d'occhio ! - Copyright ORBIFLY Dicembre 2007 - Disclaimer

ORBIFLY MET'MAP TEAM :

Programmazione e sviluppo : Alexandra Zaïnal
Concezione : Baudouin d'Aumeries
Supporto tecnico e logistico : Manuel Goepfert
Aiuto : Marc-Olivier Méhu
Aiuto per la traduzione : Arnaldo La Scala




FONTI E CREDITI :

   NOAA